CYAZ/YAZ METAR and TAF weather

Enter ICAO airport designator
Station Type Date Time Source
CYAZ METAR 2021/05/14 23:00 UTC NOAA

CYAZ 142300Z 29015KT 15SM FEW250 14/09 A3014 RMK CI2 SLP208


Station Type Date Time Source
CYAZ Decoded METAR 2021/05/14 23:00 UTC NOAA

Tofino Airport, Canada (CYAZ) 49-05N 125-46W
May 14, 2021 - 07:00 PM EDT / 2021.05.14 2300 UTC
Wind: from the WNW (290 degrees) at 17 MPH (15 KT):0
Visibility: 15 mile(s):0
Sky conditions: mostly clear
Temperature: 57 F (14 C)
Dew Point: 48 F (9 C)
Relative Humidity: 71%
Pressure (altimeter): 30.14 in. Hg (1020 hPa)
ob: CYAZ 142300Z 29015KT 15SM FEW250 14/09 A3014 RMK CI2 SLP208
cycle: 23

Station Type Date Time Source
CYAZ TAF 2021/05/14 19:00 UTC NOAA

TAF CYAZ 141838Z 1419/1501 17005KT P6SM FEW002 SCT010
BECMG 1419/1421 29010KT SKC
RMK NXT FCST WILL BE ISSUED AT 151445Z

Example: see airport list